CST,Max TemperatureF,Mean TemperatureF,Min TemperatureF,Max Dew PointF,MeanDew PointF,Min DewpointF,Max Humidity, Mean Humidity, Min Humidity, Max Sea Level PressureIn, Mean Sea Level PressureIn, Min Sea Level PressureIn, Max VisibilityMiles, Mean VisibilityMiles, Min VisibilityMiles, Max Wind SpeedMPH, Mean Wind SpeedMPH, Max Gust SpeedMPH,PrecipitationIn, CloudCover, Events, WindDirDegrees
2014-1-1,43,29,15,29,18,10,86,75,58,30.38,30.17,29.95,10,7,1,29,13,37,0.00,5,Rain-Snow,7
2014-1-2,30,18,6,19,12,2,84,75,64,30.55,30.47,30.40,10,10,10,15,8,,0.00,0,,124
2014-1-3,48,34,19,24,19,12,81,59,36,30.44,30.11,29.78,10,10,10,24,15,37,0.00,0,,165
2014-1-4,50,34,19,28,21,14,86,65,39,30.04,29.87,29.71,10,9,1,30,16,40,0.00,3,Snow,31
2014-1-5,19,10,1,16,8,-5,88,76,54,30.65,30.25,30.01,10,5,1,26,20,32,0.03,6,Snow,355
2014-1-6,16,7,-2,0,-5,-12,85,61,43,30.75,30.64,30.48,10,10,6,14,9,18,0.00,1,,286
2014-1-7,41,24,8,25,15,0,74,64,53,30.44,30.26,30.16,10,10,10,23,10,26,0.00,0,,179
2014-1-8,41,34,28,34,25,16,100,69,51,30.29,30.22,30.14,10,9,2,12,8,,0.00,5,,122
2014-1-9,35,32,28,36,33,29,100,99,92,30.27,30.15,29.97,7,2,0,10,5,,0.00,8,Fog,125
2014-1-10,52,44,34,47,37,27,100,89,58,29.95,29.73,29.60,10,5,0,24,12,30,0.00,4,Fog,201
2014-1-11,55,42,28,31,29,26,96,69,36,30.00,29.94,29.78,10,10,10,17,8,23,0.00,0,,261
2014-1-12,68,52,37,34,30,25,65,44,26,29.88,29.66,29.51,10,10,10,28,14,37,0.00,0,,203
2014-1-13,55,42,30,32,26,20,85,56,28,30.00,29.91,29.76,10,10,10,17,8,23,0.00,0,,276
2014-1-14,48,37,25,32,20,11,78,49,22,30.34,30.14,29.88,10,10,10,22,10,36,0.00,1,,315
2014-1-15,62,40,19,27,22,16,89,58,23,30.35,30.17,29.87,10,10,10,15,8,,0.00,1,,242
2014-1-16,54,44,34,23,15,10,48,31,20,30.18,30.02,29.87,10,10,10,29,12,37,0.00,1,,310
2014-1-17,45,35,25,17,15,13,69,49,28,30.31,30.22,30.07,10,10,10,18,12,24,0.00,0,,308
2014-1-18,57,42,28,25,22,16,75,51,27,30.21,30.04,29.93,10,10,10,29,13,39,0.00,0,,293
2014-1-19,66,44,21,28,23,19,89,55,20,30.21,30.05,29.89,10,10,10,23,7,31,0.00,0,,211
2014-1-20,60,42,23,28,22,11,85,50,24,30.37,30.05,29.86,10,10,10,29,8,34,0.00,0,,359
2014-1-21,30,20,10,11,2,-5,64,46,24,30.56,30.38,30.17,10,10,10,23,12,31,0.00,0,,283
2014-1-22,45,30,16,23,14,8,71,51,33,30.45,30.25,30.16,10,10,10,23,9,31,0.00,0,,8
2014-1-23,19,11,3,2,-6,-8,66,45,30,30.89,30.78,30.50,10,10,10,23,15,29,0.00,1,,4
2014-1-24,46,24,3,16,7,-5,70,45,27,30.78,30.36,29.99,10,10,10,28,12,40,0.00,0,,213
2014-1-25,62,48,33,34,27,17,73,52,32,30.09,30.02,29.90,10,10,10,24,9,30,0.00,0,,306
2014-1-26,64,45,26,32,25,4,84,53,24,30.19,29.86,29.71,10,10,9,38,11,53,0.00,0,,360
2014-1-27,27,21,15,0,-7,-9,37,32,25,30.53,30.46,30.23,10,10,10,31,20,44,0.00,8,,10
2014-1-28,30,18,6,12,1,-5,67,47,32,30.59,30.48,30.37,10,10,10,18,7,,0.00,3,,245
2014-1-29,48,29,10,15,8,2,84,48,16,30.37,30.18,29.92,10,10,10,24,10,36,0.00,0,,180
2014-1-30,51,42,32,23,17,12,57,41,27,29.91,29.82,29.72,10,10,10,25,16,33,0.00,0,,171
2014-1-31,35,30,24,26,24,19,96,83,59,29.98,29.92,29.85,10,6,2,17,14,26,0.00,7,,41